Terminal Aerodrome Forecast
Issued by NWS

Home | Current Version | Previous Version | Graphics & Text | Print | Product List | Glossary On
Versions: 1 2 3 4 5 6 7 8 9 10 11 12 13 14 15 16
000
FTUS43 KMPX 182337
TAFRNH
TAF
KRNH 182337Z 1900/1924 23007KT P6SM OVC100
     FM190200 29007KT P6SM OVC040
     FM190400 33007KT P6SM BKN030
     FM190700 34010KT P6SM OVC015 PROB30 1912/1915 6SM -SN OVC010
     FM191500 03018G23KT 2SM -SN BR OVC010=

USA.gov is the U.S. government's official web portal to all federal, state and local government web resources and services.